createdAt,value
2023-04-18T00:02:07.273Z,60.50
2023-04-18T00:06:19.416Z,60.35
2023-04-18T00:10:30.998Z,59.92
2023-04-18T00:14:43.737Z,59.80
2023-04-18T00:18:57.163Z,59.90
2023-04-18T00:23:08.775Z,59.94
2023-04-18T00:27:21.015Z,59.54
2023-04-18T00:31:32.635Z,59.18
2023-04-18T00:35:44.467Z,58.80
2023-04-18T00:39:56.012Z,58.56
2023-04-18T00:44:07.566Z,58.73
2023-04-18T00:48:19.216Z,58.61
2023-04-18T00:52:33.721Z,58.60
2023-04-18T00:56:45.799Z,58.25
2023-04-18T01:00:57.498Z,58.31
2023-04-18T01:05:09.696Z,58.22
2023-04-18T01:09:23.977Z,58.03
2023-04-18T01:13:37.014Z,58.00
2023-04-18T01:17:48.709Z,57.74
2023-04-18T01:22:00.454Z,57.74
2023-04-18T01:26:12.240Z,57.82
2023-04-18T01:30:24.094Z,57.91
2023-04-18T01:34:36.296Z,58.03
2023-04-18T01:38:51.038Z,58.10
2023-04-18T01:43:02.926Z,58.54
2023-04-18T01:47:14.857Z,58.69
2023-04-18T01:51:28.521Z,58.16
2023-04-18T01:55:40.224Z,58.76
2023-04-18T01:59:51.932Z,58.35
2023-04-18T02:04:03.833Z,58.57
2023-04-18T02:08:15.600Z,58.56
2023-04-18T02:12:29.721Z,58.90
2023-04-18T02:16:42.499Z,58.99
2023-04-18T02:20:54.249Z,59.19
2023-04-18T02:25:07.471Z,59.48
2023-04-18T02:29:19.455Z,59.48
2023-04-18T02:33:31.118Z,59.54
2023-04-18T02:37:42.942Z,59.79
2023-04-18T02:41:58.185Z,60.37
2023-04-18T02:46:10.302Z,60.32
2023-04-18T02:50:22.081Z,60.63
2023-04-18T02:54:34.366Z,60.74
2023-04-18T02:58:53.755Z,61.21
2023-04-18T03:03:25.132Z,60.90
2023-04-18T03:07:46.105Z,61.02
2023-04-18T03:11:58.025Z,61.67
2023-04-18T03:16:13.679Z,62.14
2023-04-18T03:20:27.372Z,61.73
2023-04-18T03:24:39.209Z,61.91
2023-04-18T03:28:52.625Z,62.57
2023-04-18T03:33:05.273Z,62.62
2023-04-18T03:37:17.720Z,63.18
2023-04-18T03:41:35.368Z,63.04
2023-04-18T03:45:48.626Z,63.16
2023-04-18T03:50:02.196Z,62.74
2023-04-18T03:54:16.548Z,63.36
2023-04-18T03:58:28.574Z,63.05
2023-04-18T04:02:40.942Z,63.49
2023-04-18T04:06:54.679Z,63.49
2023-04-18T04:11:06.434Z,63.41
2023-04-18T04:15:18.534Z,63.69
2023-04-18T04:19:51.317Z,63.76
2023-04-18T04:24:05.192Z,63.75
2023-04-18T04:28:23.449Z,64.02
2023-04-18T04:32:40.939Z,64.32
2023-04-18T04:36:53.988Z,64.76
2023-04-18T04:41:08.008Z,64.67
2023-04-18T04:45:25.388Z,64.82
2023-04-18T04:49:37.563Z,64.78
2023-04-18T04:53:49.198Z,64.92
2023-04-18T04:58:01.048Z,65.13
2023-04-18T05:02:26.785Z,65.22
2023-04-18T05:06:40.253Z,65.55
2023-04-18T05:10:52.091Z,65.22
2023-04-18T05:15:04.092Z,65.45
2023-04-18T05:19:15.891Z,65.91
2023-04-18T05:23:27.527Z,66.07
2023-04-18T05:27:39.488Z,66.35
2023-04-18T05:31:51.120Z,66.39
2023-04-18T05:36:03.214Z,66.21
2023-04-18T05:40:14.837Z,66.01
2023-04-18T05:44:26.528Z,66.13
2023-04-18T05:48:38.117Z,66.54
2023-04-18T05:52:49.736Z,66.39
2023-04-18T05:57:03.180Z,66.11
2023-04-18T06:01:16.196Z,65.90
2023-04-18T06:05:28.284Z,65.97
2023-04-18T06:09:40.491Z,65.92
2023-04-18T06:13:52.188Z,66.00
2023-04-18T06:18:04.007Z,66.08
2023-04-18T06:22:15.696Z,65.81
2023-04-18T06:26:27.356Z,65.32
2023-04-18T06:30:39.101Z,65.04
2023-04-18T06:34:51.086Z,65.08
2023-04-18T06:39:03.088Z,64.81
2023-04-18T06:43:14.769Z,64.51
2023-04-18T06:47:26.664Z,64.43
2023-04-18T06:51:38.320Z,64.33
2023-04-18T06:55:50.395Z,63.85
2023-04-18T07:00:02.299Z,63.71
2023-04-18T07:04:14.352Z,62.97
2023-04-18T07:08:27.582Z,62.29
2023-04-18T07:12:39.292Z,61.47
2023-04-18T07:16:51.664Z,58.57
2023-04-18T07:21:03.516Z,56.40
2023-04-18T07:25:15.360Z,54.36
2023-04-18T07:29:27.028Z,52.99
2023-04-18T07:33:43.439Z,51.41
2023-04-18T07:37:55.209Z,49.43
2023-04-18T07:42:06.959Z,46.96
2023-04-18T07:46:19.157Z,45.68
2023-04-18T07:50:31.169Z,44.84
2023-04-18T07:54:42.807Z,43.83
2023-04-18T07:58:54.616Z,43.48
2023-04-18T08:03:07.716Z,43.56
2023-04-18T08:07:19.636Z,44.83
2023-04-18T08:11:35.131Z,45.41
2023-04-18T08:15:47.127Z,45.41
2023-04-18T08:20:00.912Z,45.10
2023-04-18T08:24:12.572Z,43.70
2023-04-18T08:28:34.784Z,42.35
2023-04-18T08:32:46.951Z,41.16
2023-04-18T08:36:58.690Z,40.45
2023-04-18T08:41:10.609Z,41.15
2023-04-18T08:45:22.323Z,42.71
2023-04-18T08:49:34.056Z,44.30
2023-04-18T08:53:45.883Z,45.27
2023-04-18T08:57:57.731Z,45.91
2023-04-18T09:02:10.228Z,46.62
2023-04-18T09:06:22.076Z,47.00
2023-04-18T09:10:36.546Z,48.26
2023-04-18T09:14:56.550Z,48.68
2023-04-18T09:19:18.723Z,49.21
2023-04-18T09:23:31.029Z,50.06
2023-04-18T09:27:42.761Z,50.57
2023-04-18T09:32:02.312Z,50.42
2023-04-18T09:36:25.256Z,49.46
2023-04-18T09:40:36.996Z,49.49
2023-04-18T09:45:09.462Z,49.12
2023-04-18T09:49:21.315Z,48.24
2023-04-18T09:53:41.370Z,47.14
2023-04-18T09:57:54.065Z,46.41
2023-04-18T10:02:10.123Z,45.42
2023-04-18T10:06:22.237Z,44.92
2023-04-18T10:10:33.914Z,44.35
2023-04-18T10:14:45.907Z,42.91
2023-04-18T10:18:58.388Z,42.91
2023-04-18T10:23:31.378Z,42.88
2023-04-18T10:27:49.421Z,42.53
2023-04-18T10:32:06.975Z,42.59
2023-04-18T10:36:21.609Z,43.17
2023-04-18T10:40:34.949Z,42.80
2023-04-18T10:45:21.168Z,41.59
2023-04-18T10:49:36.120Z,42.08
2023-04-18T10:53:57.688Z,42.93
2023-04-18T10:58:09.530Z,43.79
2023-04-18T11:02:37.202Z,44.92
2023-04-18T11:06:55.040Z,44.96
2023-04-18T11:11:09.559Z,44.70
2023-04-18T11:15:25.592Z,43.62
2023-04-18T11:19:37.358Z,42.25
2023-04-18T11:23:51.858Z,41.81
2023-04-18T11:28:04.902Z,41.28
2023-04-18T11:32:16.944Z,42.40
2023-04-18T11:36:35.119Z,43.35
2023-04-18T11:40:50.771Z,43.48
2023-04-18T11:45:03.379Z,43.47
2023-04-18T11:49:31.409Z,43.65
2023-04-18T11:53:43.249Z,44.20
2023-04-18T11:58:02.496Z,45.20
2023-04-18T12:02:16.807Z,46.04
2023-04-18T12:06:45.904Z,46.95
2023-04-18T12:10:57.705Z,47.50
2023-04-18T12:15:14.833Z,48.21
2023-04-18T12:19:30.320Z,48.66
2023-04-18T12:23:50.447Z,49.32
2023-04-18T12:28:15.803Z,49.95
2023-04-18T12:32:31.092Z,50.33
2023-04-18T13:03:59.922Z,49.41
2023-04-18T13:15:01.454Z,49.36
2023-04-18T13:19:13.277Z,49.04
2023-04-18T13:23:25.298Z,48.54
2023-04-18T13:27:41.318Z,48.55
2023-04-18T13:31:53.479Z,48.19
2023-04-18T13:36:05.671Z,47.94
2023-04-18T13:40:17.452Z,48.50
2023-04-18T13:44:30.283Z,48.13
2023-04-18T13:48:41.935Z,48.37
2023-04-18T13:52:54.718Z,48.45
2023-04-18T13:57:11.422Z,48.24
2023-04-18T14:01:23.095Z,48.43
2023-04-18T14:05:35.933Z,48.39
2023-04-18T14:09:48.265Z,48.29
2023-04-18T14:13:59.995Z,48.30
2023-04-18T14:18:11.751Z,48.19
2023-04-18T14:22:23.433Z,48.47
2023-04-18T14:26:35.178Z,48.55
2023-04-18T14:30:46.978Z,48.81
2023-04-18T14:34:59.202Z,48.92
2023-04-18T14:39:11.190Z,49.26
2023-04-18T14:43:23.153Z,49.29
2023-04-18T14:47:34.900Z,49.25
2023-04-18T14:51:46.623Z,48.74
2023-04-18T14:55:58.372Z,48.52
2023-04-18T15:00:11.322Z,48.54
2023-04-18T15:04:23.305Z,48.80
2023-04-18T15:08:35.129Z,49.20
2023-04-18T15:12:46.914Z,49.03
2023-04-18T15:16:58.653Z,49.09
2023-04-18T15:21:10.477Z,49.32
2023-04-18T15:25:22.316Z,49.67
2023-04-18T15:29:34.077Z,49.99
2023-04-18T15:33:45.741Z,49.94
2023-04-18T15:37:57.754Z,49.72
2023-04-18T15:42:09.661Z,49.36
2023-04-18T15:46:21.385Z,49.58
2023-04-18T15:50:33.838Z,49.43
2023-04-18T15:54:45.680Z,49.64
2023-04-18T15:58:58.732Z,49.63
2023-04-18T16:03:10.559Z,49.61
2023-04-18T16:07:22.563Z,49.82
2023-04-18T16:11:34.241Z,50.21
2023-04-18T16:15:45.981Z,50.43
2023-04-18T16:19:57.607Z,50.38
2023-04-18T16:24:09.319Z,50.38
2023-04-18T16:28:21.648Z,50.38
2023-04-18T16:32:33.514Z,50.57
2023-04-18T16:36:45.268Z,50.71
2023-04-18T16:40:57.534Z,50.92
2023-04-18T16:45:09.433Z,51.16
2023-04-18T16:49:21.024Z,51.50
2023-04-18T16:53:32.687Z,51.24
2023-04-18T16:57:44.250Z,51.43
2023-04-18T17:01:55.909Z,51.65
2023-04-18T17:06:07.682Z,51.49
2023-04-18T17:10:19.444Z,51.70
2023-04-18T17:14:31.063Z,51.61
2023-04-18T17:18:42.892Z,51.60
2023-04-18T17:22:54.975Z,51.86
2023-04-18T17:27:06.711Z,52.33
2023-04-18T17:31:18.608Z,52.58
2023-04-18T17:35:30.243Z,52.79
2023-04-18T17:39:41.988Z,53.05
2023-04-18T17:43:53.688Z,53.14
2023-04-18T17:48:05.604Z,53.23
2023-04-18T17:52:17.889Z,53.51
2023-04-18T17:56:30.480Z,53.67
2023-04-18T18:00:42.090Z,53.85
2023-04-18T18:04:54.207Z,54.16
2023-04-18T18:09:05.871Z,54.18
2023-04-18T18:13:17.564Z,54.55
2023-04-18T18:17:29.246Z,54.55
2023-04-18T18:21:41.377Z,54.47
2023-04-18T18:25:53.071Z,55.36
2023-04-18T18:30:05.411Z,55.05
2023-04-18T18:34:17.062Z,55.57
2023-04-18T18:38:28.702Z,55.75
2023-04-18T18:42:40.462Z,55.90
2023-04-18T18:46:52.182Z,55.87
2023-04-18T18:51:04.008Z,55.83
2023-04-18T18:55:20.998Z,56.07
2023-04-18T18:59:32.866Z,56.66
2023-04-18T19:03:44.636Z,56.34
2023-04-18T19:07:57.203Z,56.59
2023-04-18T19:12:10.644Z,56.56
2023-04-18T19:16:22.331Z,56.57
2023-04-18T19:20:35.057Z,56.72
2023-04-18T19:24:50.396Z,57.07
2023-04-18T19:29:02.119Z,56.87
2023-04-18T19:33:38.548Z,57.24
2023-04-18T19:37:50.364Z,57.24
2023-04-18T19:42:05.147Z,57.10
2023-04-18T19:46:16.899Z,57.30
2023-04-18T19:50:28.654Z,57.21
2023-04-18T19:54:40.367Z,57.38
2023-04-18T19:58:52.209Z,57.29
2023-04-18T20:03:04.113Z,57.67
2023-04-18T20:07:16.384Z,57.81
2023-04-18T20:11:28.086Z,58.07
2023-04-18T20:15:40.417Z,58.13
2023-04-18T20:19:52.069Z,58.37
2023-04-18T20:24:03.774Z,58.69
2023-04-18T20:28:15.726Z,58.69
2023-04-18T20:32:28.084Z,58.96
2023-04-18T20:36:42.718Z,59.18
2023-04-18T20:40:54.697Z,59.85
2023-04-18T20:45:11.759Z,59.82
2023-04-18T20:49:39.029Z,59.90
2023-04-18T20:53:50.783Z,60.01
2023-04-18T20:58:11.742Z,60.20
2023-04-18T21:02:56.135Z,60.57
2023-04-18T21:07:34.450Z,60.71
2023-04-18T21:11:53.645Z,60.58
2023-04-18T21:21:02.377Z,61.08
2023-04-18T21:25:13.938Z,60.71
2023-04-18T21:29:25.730Z,60.94
2023-04-18T21:33:37.394Z,60.91
2023-04-18T21:37:49.110Z,61.45
2023-04-18T21:42:01.916Z,61.35
2023-04-18T21:46:14.157Z,61.58
2023-04-18T21:50:25.857Z,61.78
2023-04-18T21:54:37.941Z,61.45
2023-04-18T21:58:49.638Z,61.98
2023-04-18T22:03:01.489Z,61.57
2023-04-18T22:07:15.531Z,62.04
2023-04-18T22:11:27.290Z,62.15
2023-04-18T22:15:39.365Z,62.27
2023-04-18T22:19:51.149Z,62.44
2023-04-18T22:24:03.223Z,62.49
2023-04-18T22:28:14.841Z,62.62
2023-04-18T22:32:26.484Z,62.95
2023-04-18T22:36:38.186Z,62.91
2023-04-18T22:40:49.895Z,62.85
2023-04-18T22:45:01.594Z,62.72
2023-04-18T22:49:13.302Z,62.91
2023-04-18T22:53:24.993Z,62.80
2023-04-18T22:57:38.209Z,62.55
2023-04-18T23:01:49.912Z,62.33
2023-04-18T23:06:01.627Z,62.28
2023-04-18T23:10:13.280Z,62.37
2023-04-18T23:14:24.981Z,62.39
2023-04-18T23:18:36.687Z,62.25
2023-04-18T23:22:51.334Z,62.53
2023-04-18T23:27:03.069Z,62.67
2023-04-18T23:31:14.817Z,62.71
2023-04-18T23:35:26.492Z,63.08
2023-04-18T23:39:38.148Z,63.11
2023-04-18T23:43:49.766Z,63.31
2023-04-18T23:48:01.557Z,64.02
2023-04-18T23:52:13.216Z,63.68
2023-04-18T23:56:24.924Z,63.96
